createdAt,value
2022-07-26T00:01:31.785Z,38.12
2022-07-26T00:04:39.102Z,38.16
2022-07-26T00:07:28.965Z,38.16
2022-07-26T00:10:07.382Z,38.16
2022-07-26T00:12:48.458Z,38.15
2022-07-26T00:15:37.929Z,38.17
2022-07-26T00:18:35.002Z,38.19
2022-07-26T00:21:15.709Z,38.18
2022-07-26T00:24:12.316Z,38.18
2022-07-26T00:26:44.967Z,38.16
2022-07-26T00:29:17.653Z,38.16
2022-07-26T00:32:07.623Z,38.13
2022-07-26T00:35:00.298Z,38.11
2022-07-26T00:38:17.228Z,38.10
2022-07-26T00:40:46.824Z,38.06
2022-07-26T00:43:28.296Z,38.05
2022-07-26T00:46:22.614Z,38.03
2022-07-26T00:49:39.809Z,38.02
2022-07-26T00:52:22.360Z,38.00
2022-07-26T00:55:11.071Z,37.99
2022-07-26T00:57:52.810Z,37.98
2022-07-26T01:00:35.065Z,37.95
2022-07-26T01:03:39.448Z,37.93
2022-07-26T01:05:58.663Z,37.92
2022-07-26T01:09:08.560Z,37.90
2022-07-26T01:11:37.482Z,37.89
2022-07-26T01:14:27.793Z,37.88
2022-07-26T01:17:23.334Z,37.86
2022-07-26T01:19:41.881Z,37.83
2022-07-26T01:22:29.592Z,37.80
2022-07-26T01:25:43.450Z,37.77
2022-07-26T01:28:37.429Z,37.73
2022-07-26T01:31:45.513Z,37.70
2022-07-26T01:34:07.853Z,37.64
2022-07-26T01:36:37.840Z,37.62
2022-07-26T01:38:59.395Z,37.59
2022-07-26T01:42:02.711Z,37.54
2022-07-26T01:44:24.028Z,37.49
2022-07-26T01:47:05.083Z,37.44
2022-07-26T01:49:38.481Z,37.39
2022-07-26T01:52:31.148Z,37.32
2022-07-26T01:55:10.681Z,37.25
2022-07-26T01:58:30.242Z,37.20
2022-07-26T02:01:07.428Z,37.12
2022-07-26T02:04:18.827Z,37.06
2022-07-26T02:07:04.536Z,36.98
2022-07-26T02:09:39.754Z,36.91
2022-07-26T02:12:46.648Z,36.84
2022-07-26T02:15:28.928Z,36.75
2022-07-26T02:18:06.288Z,36.68
2022-07-26T02:20:34.386Z,36.60
2022-07-26T02:22:47.551Z,36.54
2022-07-26T02:25:31.777Z,36.50
2022-07-26T02:28:38.564Z,36.44
2022-07-26T02:30:56.306Z,36.38
2022-07-26T02:34:05.421Z,36.31
2022-07-26T02:36:42.176Z,36.22
2022-07-26T02:39:33.533Z,36.17
2022-07-26T02:42:12.114Z,36.11
2022-07-26T02:44:43.481Z,36.06
2022-07-26T02:47:33.052Z,36.01
2022-07-26T02:50:18.132Z,35.94
2022-07-26T02:52:48.213Z,35.86
2022-07-26T02:55:48.855Z,35.78
2022-07-26T02:58:26.153Z,35.69
2022-07-26T03:00:38.594Z,35.62
2022-07-26T03:03:17.583Z,35.57
2022-07-26T03:05:59.520Z,35.51
2022-07-26T03:08:49.981Z,35.44
2022-07-26T03:11:47.046Z,35.33
2022-07-26T03:14:46.568Z,35.23
2022-07-26T03:17:44.317Z,35.10
2022-07-26T03:20:23.876Z,34.95
2022-07-26T03:23:10.812Z,34.80
2022-07-26T03:25:49.538Z,34.65
2022-07-26T03:28:35.217Z,34.49
2022-07-26T03:31:06.168Z,34.34
2022-07-26T03:33:38.710Z,34.22
2022-07-26T03:36:24.798Z,34.09
2022-07-26T03:39:15.102Z,33.94
2022-07-26T03:41:45.623Z,33.83
2022-07-26T03:44:55.454Z,33.70
2022-07-26T03:47:48.821Z,33.56
2022-07-26T03:50:34.705Z,33.43
2022-07-26T03:52:58.089Z,33.30
2022-07-26T03:56:04.337Z,33.19
2022-07-26T03:58:43.973Z,33.10
2022-07-26T04:01:30.249Z,33.02
2022-07-26T04:04:19.670Z,32.94
2022-07-26T04:06:57.866Z,32.86
2022-07-26T04:09:46.814Z,32.78
2022-07-26T04:12:26.534Z,32.69
2022-07-26T04:15:03.978Z,32.64
2022-07-26T04:17:19.542Z,32.57
2022-07-26T04:19:50.291Z,32.50
2022-07-26T04:22:38.417Z,32.43
2022-07-26T04:25:54.118Z,32.34
2022-07-26T04:28:36.624Z,32.24
2022-07-26T04:31:24.452Z,32.17
2022-07-26T04:33:51.430Z,32.09
2022-07-26T04:36:10.970Z,32.01
2022-07-26T04:39:07.500Z,31.94
2022-07-26T04:42:14.771Z,31.84
2022-07-26T04:44:48.568Z,31.71
2022-07-26T04:47:46.161Z,31.63
2022-07-26T04:50:35.536Z,31.54
2022-07-26T04:53:39.109Z,31.43
2022-07-26T04:55:52.695Z,31.34
2022-07-26T04:58:34.179Z,31.27
2022-07-26T05:03:39.621Z,31.07
2022-07-26T05:06:22.553Z,31.00
2022-07-26T05:09:23.169Z,30.90
2022-07-26T05:11:53.470Z,30.80
2022-07-26T05:14:38.892Z,30.73
2022-07-26T05:17:08.694Z,30.66
2022-07-26T05:20:21.451Z,30.57
2022-07-26T05:22:48.893Z,30.48
2022-07-26T05:25:11.091Z,30.40
2022-07-26T05:27:32.173Z,30.33
2022-07-26T05:29:56.001Z,30.24
2022-07-26T05:32:48.567Z,30.16
2022-07-26T05:35:05.450Z,30.08
2022-07-26T05:37:27.654Z,30.01
2022-07-26T05:40:54.740Z,29.93
2022-07-26T05:44:01.367Z,29.83
2022-07-26T05:46:22.972Z,29.75
2022-07-26T05:48:56.693Z,29.66
2022-07-26T05:51:20.435Z,29.58
2022-07-26T05:53:32.183Z,29.49
2022-07-26T05:56:01.064Z,29.45
2022-07-26T05:58:33.348Z,29.37
2022-07-26T06:00:48.661Z,29.30
2022-07-26T06:03:26.049Z,29.23
2022-07-26T06:05:37.203Z,29.14
2022-07-26T06:07:59.283Z,29.07
2022-07-26T06:10:29.633Z,28.99
2022-07-26T06:13:03.809Z,28.92
2022-07-26T06:16:20.465Z,28.85
2022-07-26T06:18:57.873Z,28.75
2022-07-26T06:21:51.016Z,28.66
2022-07-26T06:23:58.319Z,28.57
2022-07-26T06:26:29.028Z,28.48
2022-07-26T06:28:46.488Z,28.39
2022-07-26T06:31:42.581Z,28.32
2022-07-26T06:34:10.104Z,28.24
2022-07-26T06:36:21.932Z,28.15
2022-07-26T06:39:04.818Z,28.11
2022-07-26T06:41:48.301Z,28.05
2022-07-26T06:44:18.848Z,27.99
2022-07-26T06:47:18.253Z,27.91
2022-07-26T06:49:37.045Z,27.80
2022-07-26T06:52:02.490Z,27.72
2022-07-26T06:54:47.138Z,27.65
2022-07-26T06:57:16.038Z,27.55
2022-07-26T06:59:45.963Z,27.45
2022-07-26T07:01:59.964Z,27.41
2022-07-26T07:04:07.304Z,27.35
2022-07-26T07:06:20.729Z,27.31
2022-07-26T07:08:54.022Z,27.25
2022-07-26T07:11:21.653Z,27.17
2022-07-26T07:13:59.714Z,27.11
2022-07-26T07:16:16.255Z,27.04
2022-07-26T07:18:32.635Z,26.98
2022-07-26T07:21:19.482Z,26.93
2022-07-26T07:23:38.637Z,26.86
2022-07-26T07:26:26.609Z,26.81
2022-07-26T07:29:06.820Z,26.76
2022-07-26T07:32:03.928Z,26.72
2022-07-26T07:34:19.620Z,26.64
2022-07-26T07:36:46.428Z,26.59
2022-07-26T07:39:06.621Z,26.53
2022-07-26T07:41:37.640Z,26.49
2022-07-26T07:44:47.835Z,26.44
2022-07-26T07:47:17.603Z,26.38
2022-07-26T07:49:58.399Z,26.31
2022-07-26T07:52:48.292Z,26.23
2022-07-26T07:55:36.529Z,26.15
2022-07-26T07:57:55.174Z,26.07
2022-07-26T08:00:16.979Z,26.00
2022-07-26T08:02:28.158Z,25.93
2022-07-26T08:05:18.856Z,25.85
2022-07-26T08:08:09.249Z,25.74
2022-07-26T08:10:26.105Z,25.65
2022-07-26T08:13:02.874Z,25.56
2022-07-26T08:15:59.451Z,25.47
2022-07-26T08:19:03.013Z,25.39
2022-07-26T08:21:15.709Z,25.29
2022-07-26T08:23:52.074Z,25.22
2022-07-26T08:26:16.344Z,25.14
2022-07-26T08:28:47.700Z,25.07
2022-07-26T08:32:15.581Z,25.00
2022-07-26T08:35:19.827Z,24.92
2022-07-26T08:37:42.124Z,24.88
2022-07-26T08:40:48.080Z,24.83
2022-07-26T08:43:52.260Z,24.78
2022-07-26T08:46:34.932Z,24.73
2022-07-26T08:49:08.207Z,24.65
2022-07-26T08:51:59.930Z,24.59
2022-07-26T08:54:55.272Z,24.51
2022-07-26T08:57:37.031Z,24.43
2022-07-26T09:00:33.715Z,24.37
2022-07-26T09:02:57.366Z,24.28
2022-07-26T09:05:56.257Z,24.20
2022-07-26T09:08:36.805Z,24.12
2022-07-26T09:11:07.940Z,24.06
2022-07-26T09:13:36.456Z,23.99
2022-07-26T09:16:27.539Z,23.93
2022-07-26T09:19:26.119Z,23.88
2022-07-26T09:21:58.926Z,23.82
2022-07-26T09:24:34.757Z,23.77
2022-07-26T09:27:28.329Z,23.73
2022-07-26T09:29:46.686Z,23.68
2022-07-26T09:32:23.786Z,23.64
2022-07-26T09:34:51.979Z,23.58
2022-07-26T09:37:48.475Z,23.55
2022-07-26T09:40:07.557Z,23.51
2022-07-26T09:42:29.420Z,23.46
2022-07-26T09:45:12.699Z,23.40
2022-07-26T09:47:46.083Z,23.35
2022-07-26T09:50:34.153Z,23.31
2022-07-26T09:53:08.749Z,23.25
2022-07-26T09:55:24.019Z,23.21
2022-07-26T09:57:42.276Z,23.17
2022-07-26T09:59:51.902Z,23.13
2022-07-26T10:02:20.194Z,23.10
2022-07-26T10:04:57.994Z,23.04
2022-07-26T10:07:58.609Z,22.97
2022-07-26T10:10:41.733Z,22.92
2022-07-26T10:13:41.141Z,22.86
2022-07-26T10:16:46.931Z,22.82
2022-07-26T10:20:03.703Z,22.74
2022-07-26T10:23:27.285Z,22.65
2022-07-26T10:26:34.175Z,22.57
2022-07-26T10:29:47.852Z,22.51
2022-07-26T10:32:51.348Z,22.46
2022-07-26T10:35:48.195Z,22.42
2022-07-26T10:38:09.582Z,22.38
2022-07-26T10:40:41.024Z,22.35
2022-07-26T10:43:30.111Z,22.32
2022-07-26T10:46:25.038Z,22.29
2022-07-26T10:49:05.598Z,22.24
2022-07-26T10:51:46.349Z,22.20
2022-07-26T10:54:45.640Z,22.16
2022-07-26T10:57:13.334Z,22.09
2022-07-26T10:59:57.716Z,22.04
2022-07-26T11:03:00.668Z,21.98
2022-07-26T11:05:20.027Z,21.93
2022-07-26T11:07:41.515Z,21.89
2022-07-26T11:09:56.186Z,21.84
2022-07-26T11:12:42.041Z,21.79
2022-07-26T11:14:55.609Z,21.74
2022-07-26T11:17:35.958Z,21.69
2022-07-26T11:20:07.834Z,21.63
2022-07-26T11:22:28.843Z,21.61
2022-07-26T11:24:48.110Z,21.59
2022-07-26T11:27:56.430Z,21.55
2022-07-26T11:30:12.805Z,21.51
2022-07-26T11:33:00.330Z,21.48
2022-07-26T11:36:00.678Z,21.46
2022-07-26T11:38:12.428Z,21.40
2022-07-26T11:40:49.186Z,21.38
2022-07-26T11:43:02.405Z,21.37
2022-07-26T11:45:16.388Z,21.36
2022-07-26T11:48:06.875Z,21.35
2022-07-26T11:50:26.453Z,21.36
2022-07-26T11:52:46.644Z,21.31
2022-07-26T11:55:31.419Z,21.28
2022-07-26T11:58:08.576Z,21.23
2022-07-26T12:00:48.255Z,21.17
2022-07-26T12:03:00.960Z,21.12
2022-07-26T12:05:59.958Z,21.07
2022-07-26T12:08:48.095Z,21.02
2022-07-26T12:11:23.888Z,20.98
2022-07-26T12:13:56.074Z,20.95
2022-07-26T12:16:46.569Z,20.92
2022-07-26T12:20:13.467Z,20.88
2022-07-26T12:23:10.604Z,20.83
2022-07-26T12:25:30.165Z,20.78
2022-07-26T12:28:16.623Z,20.75
2022-07-26T12:31:07.460Z,20.73
2022-07-26T12:33:57.688Z,20.68
2022-07-26T12:36:43.469Z,20.64
2022-07-26T12:39:34.893Z,20.60
2022-07-26T12:42:21.235Z,20.58
2022-07-26T12:44:54.596Z,20.55
2022-07-26T12:47:21.289Z,20.53
2022-07-26T12:50:09.877Z,20.51
2022-07-26T12:52:48.894Z,20.48
2022-07-26T12:55:22.237Z,20.46
2022-07-26T12:57:46.093Z,20.45
2022-07-26T13:00:23.117Z,20.42
2022-07-26T13:02:56.135Z,20.41
2022-07-26T13:06:03.427Z,20.41
2022-07-26T13:09:17.153Z,20.39
2022-07-26T13:11:41.054Z,20.38
2022-07-26T13:14:07.657Z,20.37
2022-07-26T13:16:23.736Z,20.36
2022-07-26T13:18:49.479Z,20.36
2022-07-26T13:21:03.080Z,20.35
2022-07-26T13:24:03.548Z,20.35
2022-07-26T13:26:46.895Z,20.34
2022-07-26T13:29:12.683Z,20.37
2022-07-26T13:31:45.799Z,20.37
2022-07-26T13:34:34.770Z,20.37
2022-07-26T13:37:33.038Z,20.38
2022-07-26T13:39:54.392Z,20.37
2022-07-26T13:42:37.258Z,20.39
2022-07-26T13:44:58.724Z,20.41
2022-07-26T13:47:08.858Z,20.43
2022-07-26T13:49:16.262Z,20.44
2022-07-26T13:51:42.645Z,20.46
2022-07-26T13:54:20.136Z,20.48
2022-07-26T13:56:51.068Z,20.50
2022-07-26T13:59:21.536Z,20.52
2022-07-26T14:01:43.367Z,20.54
2022-07-26T14:04:22.013Z,20.56
2022-07-26T14:06:47.588Z,20.57
2022-07-26T14:08:58.364Z,20.59
2022-07-26T14:11:43.635Z,20.61
2022-07-26T14:14:51.715Z,20.62
2022-07-26T14:17:09.484Z,20.65
2022-07-26T14:20:18.172Z,20.66
2022-07-26T14:22:58.057Z,20.68
2022-07-26T14:25:29.292Z,20.70
2022-07-26T14:27:57.133Z,20.72
2022-07-26T14:30:37.418Z,20.75
2022-07-26T14:33:06.169Z,20.78
2022-07-26T14:35:29.146Z,20.82
2022-07-26T14:38:24.315Z,20.86
2022-07-26T14:41:45.542Z,20.94
2022-07-26T14:44:11.164Z,21.02
2022-07-26T14:46:38.006Z,21.10
2022-07-26T14:49:19.276Z,21.19
2022-07-26T14:52:26.680Z,21.26
2022-07-26T14:54:51.113Z,21.35
2022-07-26T14:57:24.982Z,21.43
2022-07-26T15:00:03.231Z,21.52
2022-07-26T15:02:25.617Z,21.60
2022-07-26T15:04:42.460Z,21.68
2022-07-26T15:07:42.619Z,21.80
2022-07-26T15:10:22.088Z,21.92
2022-07-26T15:13:02.093Z,22.03
2022-07-26T15:15:24.500Z,22.15
2022-07-26T15:17:41.619Z,22.26
2022-07-26T15:20:33.387Z,22.37
2022-07-26T15:22:50.777Z,22.50
2022-07-26T15:25:15.456Z,22.60
2022-07-26T15:27:55.250Z,22.71
2022-07-26T15:30:13.608Z,22.83
2022-07-26T15:32:44.956Z,22.93
2022-07-26T15:35:57.017Z,23.05
2022-07-26T15:38:26.938Z,23.16
2022-07-26T15:41:10.636Z,23.27
2022-07-26T15:43:56.552Z,23.40
2022-07-26T15:46:29.519Z,23.53
2022-07-26T15:49:19.158Z,23.71
2022-07-26T15:51:49.749Z,23.88
2022-07-26T15:54:25.878Z,24.03
2022-07-26T15:57:25.957Z,24.20
2022-07-26T16:00:01.161Z,24.37
2022-07-26T16:02:30.000Z,24.49
2022-07-26T16:05:09.997Z,24.65
2022-07-26T16:07:38.068Z,24.80
2022-07-26T16:10:18.913Z,24.97
2022-07-26T16:13:45.708Z,25.14
2022-07-26T16:16:26.264Z,25.28
2022-07-26T16:19:13.705Z,25.36
2022-07-26T16:21:37.431Z,25.42
2022-07-26T16:24:39.186Z,25.48
2022-07-26T16:27:31.342Z,25.56
2022-07-26T16:30:00.837Z,25.64
2022-07-26T16:32:53.254Z,25.80
2022-07-26T16:35:26.289Z,26.02
2022-07-26T16:38:25.878Z,26.15
2022-07-26T16:41:01.312Z,26.33
2022-07-26T16:43:44.108Z,26.50
2022-07-26T16:46:15.858Z,26.70
2022-07-26T16:49:04.831Z,26.88
2022-07-26T16:52:06.538Z,27.05
2022-07-26T16:54:27.742Z,27.20
2022-07-26T16:56:51.389Z,27.33
2022-07-26T16:59:52.750Z,27.42
2022-07-26T17:02:59.379Z,27.62
2022-07-26T17:05:56.928Z,27.79
2022-07-26T17:08:30.183Z,28.02
2022-07-26T17:10:50.068Z,28.13
2022-07-26T17:13:41.575Z,28.29
2022-07-26T17:17:07.432Z,28.47
2022-07-26T17:19:27.551Z,28.62
2022-07-26T17:21:57.656Z,28.68
2022-07-26T17:24:47.623Z,28.77
2022-07-26T17:27:29.510Z,28.88
2022-07-26T17:30:12.817Z,29.03
2022-07-26T17:32:36.751Z,29.25
2022-07-26T17:35:19.506Z,29.38
2022-07-26T17:38:04.599Z,29.44
2022-07-26T17:40:44.832Z,29.57
2022-07-26T17:43:37.192Z,29.78
2022-07-26T17:46:22.527Z,29.99
2022-07-26T17:49:00.257Z,30.24
2022-07-26T17:51:58.648Z,30.43
2022-07-26T17:55:06.069Z,30.57
2022-07-26T17:57:49.651Z,30.58
2022-07-26T18:00:21.987Z,30.61
2022-07-26T18:03:00.322Z,30.65
2022-07-26T18:05:35.018Z,30.62
2022-07-26T18:08:19.977Z,30.67
2022-07-26T18:11:46.445Z,30.79
2022-07-26T18:14:24.987Z,30.92
2022-07-26T18:17:13.650Z,31.02
2022-07-26T18:20:02.045Z,31.12
2022-07-26T18:22:31.303Z,31.29
2022-07-26T18:25:15.243Z,31.48
2022-07-26T18:28:17.310Z,31.72
2022-07-26T18:30:45.389Z,31.91
2022-07-26T18:33:46.150Z,32.14
2022-07-26T18:36:05.801Z,32.39
2022-07-26T18:38:46.563Z,32.61
2022-07-26T18:42:03.400Z,32.89
2022-07-26T18:44:25.125Z,33.14
2022-07-26T18:47:04.842Z,33.27
2022-07-26T18:49:22.851Z,33.41
2022-07-26T18:51:52.311Z,33.52
2022-07-26T18:54:50.475Z,33.62
2022-07-26T18:57:10.971Z,33.58
2022-07-26T18:59:54.155Z,33.45
2022-07-26T19:03:21.183Z,33.34
2022-07-26T19:06:19.217Z,33.33
2022-07-26T19:08:48.972Z,33.44
2022-07-26T19:11:10.652Z,33.50
2022-07-26T19:13:44.585Z,33.58
2022-07-26T19:16:55.119Z,33.65
2022-07-26T19:19:45.208Z,33.74
2022-07-26T19:22:24.454Z,33.75
2022-07-26T19:25:25.943Z,33.85
2022-07-26T19:28:05.256Z,33.99
2022-07-26T19:30:26.440Z,34.20
2022-07-26T19:32:39.944Z,34.35
2022-07-26T19:35:38.470Z,34.50
2022-07-26T19:38:22.529Z,34.66
2022-07-26T19:40:46.071Z,34.84
2022-07-26T19:43:27.771Z,34.98
2022-07-26T19:46:16.380Z,35.02
2022-07-26T19:49:05.601Z,35.02
2022-07-26T19:51:35.479Z,35.07
2022-07-26T19:54:45.188Z,35.10
2022-07-26T19:57:37.687Z,35.17
2022-07-26T20:00:02.970Z,35.28
2022-07-26T20:02:42.087Z,35.31
2022-07-26T20:05:22.161Z,35.37
2022-07-26T20:07:59.262Z,35.44
2022-07-26T20:10:10.561Z,35.53
2022-07-26T20:13:02.095Z,35.60
2022-07-26T20:15:43.667Z,35.54
2022-07-26T20:18:32.117Z,35.49
2022-07-26T20:21:06.519Z,35.46
2022-07-26T20:24:14.171Z,35.34
2022-07-26T20:27:03.138Z,35.21
2022-07-26T20:29:19.290Z,35.20
2022-07-26T20:32:29.049Z,35.12
2022-07-26T20:34:53.106Z,35.14
2022-07-26T20:37:24.242Z,35.19
2022-07-26T20:39:46.089Z,35.20
2022-07-26T20:42:21.934Z,35.26
2022-07-26T20:45:11.476Z,35.36
2022-07-26T20:48:03.702Z,35.47
2022-07-26T20:50:16.166Z,35.55
2022-07-26T20:53:11.766Z,35.52
2022-07-26T20:56:08.916Z,35.60
2022-07-26T20:58:39.233Z,35.66
2022-07-26T21:01:25.678Z,35.70
2022-07-26T21:04:02.639Z,35.81
2022-07-26T21:06:20.282Z,35.89
2022-07-26T21:09:19.661Z,35.88
2022-07-26T21:11:53.416Z,35.86
2022-07-26T21:14:14.285Z,35.82
2022-07-26T21:17:02.165Z,35.85
2022-07-26T21:19:42.226Z,35.94
2022-07-26T21:22:28.843Z,36.00
2022-07-26T21:25:12.841Z,36.04
2022-07-26T21:28:23.387Z,36.07
2022-07-26T21:31:23.924Z,36.12
2022-07-26T21:34:13.133Z,36.12
2022-07-26T21:37:30.730Z,36.04
2022-07-26T21:40:32.379Z,36.05
2022-07-26T21:43:13.154Z,36.12
2022-07-26T21:46:01.154Z,36.16
2022-07-26T21:48:32.652Z,36.23
2022-07-26T21:50:49.667Z,36.35
2022-07-26T21:53:20.064Z,36.40
2022-07-26T21:55:55.958Z,36.45
2022-07-26T21:58:46.871Z,36.51
2022-07-26T22:01:15.990Z,36.57
2022-07-26T22:04:35.495Z,36.66
2022-07-26T22:07:29.072Z,36.71
2022-07-26T22:10:01.992Z,36.76
2022-07-26T22:12:43.147Z,36.80
2022-07-26T22:15:13.877Z,36.82
2022-07-26T22:17:47.184Z,36.84
2022-07-26T22:20:47.999Z,36.90
2022-07-26T22:23:28.763Z,36.93
2022-07-26T22:26:02.983Z,36.96
2022-07-26T22:28:34.045Z,37.01
2022-07-26T22:31:31.720Z,37.09
2022-07-26T22:34:20.275Z,37.18
2022-07-26T22:36:45.283Z,37.22
2022-07-26T22:39:46.591Z,37.24
2022-07-26T22:42:24.705Z,37.24
2022-07-26T22:45:21.963Z,37.32
2022-07-26T22:47:37.089Z,37.33
2022-07-26T22:50:27.127Z,37.33
2022-07-26T22:53:15.075Z,37.33
2022-07-26T22:56:13.172Z,37.34
2022-07-26T22:59:26.655Z,37.41
2022-07-26T23:01:50.645Z,37.48
2022-07-26T23:04:53.533Z,37.51
2022-07-26T23:07:52.839Z,37.55
2022-07-26T23:11:12.767Z,37.53
2022-07-26T23:14:13.138Z,37.55
2022-07-26T23:17:10.213Z,37.50
2022-07-26T23:19:40.821Z,37.53
2022-07-26T23:21:53.348Z,37.55
2022-07-26T23:24:07.230Z,37.55
2022-07-26T23:26:42.570Z,37.54
2022-07-26T23:29:21.352Z,37.59
2022-07-26T23:32:18.798Z,37.66
2022-07-26T23:35:17.931Z,37.67
2022-07-26T23:38:01.373Z,37.70
2022-07-26T23:40:49.628Z,37.73
2022-07-26T23:43:58.686Z,37.77
2022-07-26T23:46:54.242Z,37.80
2022-07-26T23:49:40.945Z,37.84
2022-07-26T23:52:18.851Z,37.86
2022-07-26T23:54:42.834Z,37.88
2022-07-26T23:57:19.113Z,37.91
